Time;durP1;ratioP1;P1;durP2;ratioP2;P2;SDS_P1;SDS_P2;PMS_P1;PMS_P2;Temp;Humidity;BMP_temperature;BMP_pressure;BME280_temperature;BME280_humidity;BME280_pressure;Samples;Min_cycle;Max_cycle;Signal;HPM_P1;HPM_P2
2021/11/29 11:50:42;;;;;;;12.53;8.57;;;-0.40;99.90;;;;;;5138040;27;20341;-80
2021/11/29 11:53:09;;;;;;;13.73;8.00;;;-0.20;99.90;;;;;;5131965;28;20428;-80
2021/11/29 11:55:38;;;;;;;15.63;9.23;;;0.00;99.90;;;;;;5141550;27;20454;-81
2021/11/29 11:58:13;;;;;;;10.53;7.80;;;0.10;99.90;;;;;;5140957;27;20427;-80
2021/11/29 12:00:44;;;;;;;12.93;9.43;;;0.10;99.90;;;;;;5138946;28;20846;-80
2021/11/29 12:03:23;;;;;;;14.47;8.10;;;0.20;99.90;;;;;;5140805;27;20420;-80
2021/11/29 12:05:54;;;;;;;11.30;8.43;;;0.20;99.90;;;;;;5139853;27;20400;-79
2021/11/29 12:08:44;;;;;;;10.73;7.87;;;0.30;99.90;;;;;;5136540;28;20397;-80
2021/11/29 12:11:22;;;;;;;9.90;7.37;;;0.30;99.90;;;;;;5140101;28;20454;-80
2021/11/29 12:13:50;;;;;;;12.37;7.87;;;0.30;99.90;;;;;;5141628;27;20424;-80
2021/11/29 12:16:30;;;;;;;9.87;8.10;;;0.20;99.90;;;;;;5140120;28;20409;-80
2021/11/29 12:18:55;;;;;;;9.50;6.73;;;0.20;99.90;;;;;;5140895;27;20396;-80
2021/11/29 12:21:47;;;;;;;12.03;7.77;;;0.10;99.90;;;;;;5141900;27;20547;-80
2021/11/29 12:24:17;;;;;;;14.17;9.10;;;0.10;99.90;;;;;;5138957;27;20214;-80
2021/11/29 12:26:43;;;;;;;11.70;7.33;;;0.10;99.90;;;;;;5142056;28;20419;-80
2021/11/29 12:29:24;;;;;;;14.73;9.80;;;0.10;99.90;;;;;;5141681;27;20811;-80
2021/11/29 12:32:05;;;;;;;14.33;8.90;;;0.10;99.90;;;;;;5141181;27;20262;-80
2021/11/29 12:34:46;;;;;;;16.33;8.17;;;0.10;99.90;;;;;;5139702;28;20996;-80
2021/11/29 12:37:26;;;;;;;10.10;7.43;;;0.00;99.90;;;;;;5141100;27;20900;-80
2021/11/29 12:40:01;;;;;;;12.07;8.23;;;-0.20;99.90;;;;;;5139541;28;20488;-80
2021/11/29 12:42:43;;;;;;;16.33;8.77;;;-0.20;99.90;;;;;;5141491;27;20423;-80
2021/11/29 12:45:08;;;;;;;13.50;8.53;;;-0.20;99.90;;;;;;5139883;28;20424;-80
2021/11/29 12:47:46;;;;;;;13.50;8.20;;;-0.20;99.90;;;;;;5140323;28;20424;-80
2021/11/29 12:50:33;;;;;;;16.87;9.73;;;-0.20;99.90;;;;;;5139282;27;20235;-80
2021/11/29 12:53:19;;;;;;;16.23;8.67;;;-0.20;99.90;;;;;;5131489;27;20423;-78
2021/11/29 12:56:16;;;;;;;22.47;12.67;;;-0.20;99.90;;;;;;5130759;28;20472;-78
2021/11/29 12:59:05;;;;;;;9.97;6.40;;;-0.20;99.90;;;;;;5129796;27;20417;-78
2021/11/29 13:01:36;;;;;;;6.07;4.67;;;-0.30;99.90;;;;;;5119855;28;20409;-78
2021/11/29 13:04:03;;;;;;;10.73;5.37;;;-0.20;99.90;;;;;;5122613;28;20516;-79
2021/11/29 13:06:29;;;;;;;7.73;4.93;;;-0.10;99.90;;;;;;5122805;28;20785;-79
2021/11/29 13:09:10;;;;;;;6.67;4.60;;;0.00;99.90;;;;;;5122206;28;20457;-79
2021/11/29 13:11:36;;;;;;;6.73;4.87;;;0.00;99.90;;;;;;5121768;28;20740;-78
2021/11/29 13:14:09;;;;;;;4.80;4.10;;;0.00;99.90;;;;;;5122682;27;20440;-79
2021/11/29 13:16:35;;;;;;;9.33;5.87;;;0.10;99.90;;;;;;5122136;28;20160;-79
2021/11/29 13:19:14;;;;;;;11.30;4.83;;;0.10;99.90;;;;;;5121317;28;20451;-79
2021/11/29 13:21:47;;;;;;;7.47;4.73;;;0.00;99.90;;;;;;5121789;28;20176;-78
2021/11/29 13:24:33;;;;;;;12.53;4.93;;;-0.10;99.90;;;;;;5122693;27;20439;-79
2021/11/29 13:27:07;;;;;;;6.43;4.03;;;-0.10;99.90;;;;;;5121987;28;20433;-78
2021/11/29 13:29:36;;;;;;;15.27;4.87;;;0.00;99.90;;;;;;5121406;28;20513;-79
2021/11/29 13:32:08;;;;;;;8.83;5.30;;;0.10;99.90;;;;;;5125292;28;20402;-79
2021/11/29 13:34:40;;;;;;;7.70;4.50;;;0.10;99.90;;;;;;5136330;28;20461;-79
2021/11/29 13:37:18;;;;;;;6.43;3.83;;;0.20;99.90;;;;;;5135502;28;20488;-79
2021/11/29 13:39:47;;;;;;;10.83;4.07;;;0.30;99.90;;;;;;5128672;28;20890;-78
2021/11/29 13:42:40;;;;;;;7.07;3.77;;;0.20;99.90;;;;;;5121687;28;20471;-79
2021/11/29 13:45:10;;;;;;;5.57;3.73;;;0.10;99.90;;;;;;5116759;27;20801;-79
2021/11/29 13:47:42;;;;;;;7.37;3.13;;;0.10;99.90;;;;;;5120436;27;20429;-79
2021/11/29 13:50:13;;;;;;;8.83;4.17;;;0.10;99.90;;;;;;5118351;28;20857;-79
2021/11/29 13:52:42;;;;;;;6.60;3.10;;;0.10;99.90;;;;;;5120551;28;20829;-79
2021/11/29 13:55:11;;;;;;;8.37;3.53;;;0.10;99.90;;;;;;5120272;28;20398;-79
2021/11/29 13:57:44;;;;;;;8.23;3.60;;;0.10;99.90;;;;;;5118663;28;20474;-79
2021/11/29 14:00:18;;;;;;;9.23;4.13;;;0.20;99.90;;;;;;5118536;28;20406;-77
2021/11/29 14:02:46;;;;;;;7.63;4.00;;;0.30;99.90;;;;;;5119187;28;20441;-80
2021/11/29 14:05:13;;;;;;;8.63;4.03;;;0.50;99.90;;;;;;5118488;28;20470;-79
2021/11/29 14:07:56;;;;;;;5.70;3.10;;;0.60;99.90;;;;;;5118035;28;20417;-78
2021/11/29 14:10:39;;;;;;;4.20;2.57;;;0.80;99.90;;;;;;5118143;28;20449;-79
2021/11/29 14:13:08;;;;;;;5.53;3.20;;;0.80;99.90;;;;;;5117213;28;20425;-79
2021/11/29 14:16:05;;;;;;;6.53;2.57;;;0.70;99.90;;;;;;5118576;28;20413;-78
2021/11/29 14:18:32;;;;;;;5.43;2.80;;;0.60;99.90;;;;;;5104623;28;20421;-76
2021/11/29 14:21:03;;;;;;;3.10;2.27;;;0.40;99.90;;;;;;5116942;28;20405;-78
2021/11/29 14:23:42;;;;;;;6.43;3.07;;;0.30;99.90;;;;;;5114805;28;20430;-77
2021/11/29 14:26:10;;;;;;;4.43;3.27;;;0.10;99.90;;;;;;5118198;28;21029;-79
2021/11/29 14:28:36;;;;;;;6.00;3.43;;;0.00;99.90;;;;;;5117961;28;20448;-79
2021/11/29 14:31:03;;;;;;;4.53;3.17;;;-0.10;99.90;;;;;;5119136;28;20430;-78
2021/11/29 14:33:37;;;;;;;3.87;2.97;;;-0.10;99.90;;;;;;5119538;28;20881;-82
2021/11/29 14:36:05;;;;;;;8.40;4.60;;;-0.20;99.90;;;;;;5118750;28;20382;-79
2021/11/29 14:38:47;;;;;;;14.83;5.93;;;-0.20;99.90;;;;;;5118205;28;20910;-79
2021/11/29 14:41:13;;;;;;;8.03;4.40;;;-0.20;99.90;;;;;;5118834;28;20759;-80
2021/11/29 14:43:53;;;;;;;7.50;3.37;;;-0.20;99.90;;;;;;5120441;28;20903;-80
2021/11/29 14:46:48;;;;;;;5.17;2.80;;;-0.20;99.90;;;;;;5119535;28;20413;-80
2021/11/29 14:49:16;;;;;;;7.13;2.77;;;-0.20;99.90;;;;;;5112846;28;20487;-80
2021/11/29 14:51:43;;;;;;;3.43;2.90;;;-0.20;99.90;;;;;;5118795;28;20961;-80
2021/11/29 14:54:09;;;;;;;5.13;2.47;;;-0.30;99.90;;;;;;5120500;28;20432;-81
2021/11/29 14:56:35;;;;;;;2.97;2.40;;;-0.30;99.90;;;;;;5121383;28;20410;-80
2021/11/29 14:59:01;;;;;;;4.40;2.73;;;-0.30;99.90;;;;;;5119937;28;20773;-80
2021/11/29 15:01:28;;;;;;;6.33;3.57;;;-0.30;99.90;;;;;;5120595;28;20174;-80
2021/11/29 15:03:54;;;;;;;4.23;3.50;;;-0.40;99.90;;;;;;5121324;28;20194;-80
2021/11/29 15:06:26;;;;;;;7.73;3.77;;;-0.40;99.90;;;;;;5120557;28;20496;-80
2021/11/29 15:08:57;;;;;;;6.57;4.30;;;-0.40;99.90;;;;;;5122482;28;20207;-80
2021/11/29 15:11:24;;;;;;;7.30;5.30;;;-0.50;99.90;;;;;;5124535;28;20868;-79
2021/11/29 15:13:56;;;;;;;9.80;4.83;;;-0.50;99.90;;;;;;5119484;28;21129;-80
2021/11/29 15:16:30;;;;;;;9.63;5.90;;;-0.60;99.90;;;;;;5118174;28;20409;-80
2021/11/29 15:19:24;;;;;;;12.37;5.77;;;-0.60;99.90;;;;;;5119517;28;20389;-80
2021/11/29 15:22:09;;;;;;;6.17;4.77;;;-0.70;99.90;;;;;;5117742;28;20772;-80
2021/11/29 15:24:39;;;;;;;19.93;14.27;;;-0.70;99.90;;;;;;5119147;28;20742;-80
2021/11/29 15:27:28;;;;;;;6.30;4.60;;;-0.60;99.90;;;;;;5120166;28;20429;-79
2021/11/29 15:29:55;;;;;;;5.73;3.33;;;-0.70;99.90;;;;;;5118567;28;20440;-80
2021/11/29 15:32:30;;;;;;;7.63;4.43;;;-0.80;99.90;;;;;;5117575;28;20429;-80
2021/11/29 15:35:00;;;;;;;7.27;3.37;;;-0.80;99.90;;;;;;5118558;28;20508;-80
2021/11/29 15:37:26;;;;;;;18.10;9.03;;;-0.90;99.90;;;;;;5121234;28;20447;-80
2021/11/29 15:39:52;;;;;;;9.60;5.70;;;-1.00;99.90;;;;;;5132667;28;20409;-79
2021/11/29 15:42:32;;;;;;;8.93;5.57;;;-1.10;99.90;;;;;;5134604;28;20292;-79
2021/11/29 15:45:15;;;;;;;8.13;5.67;;;-1.10;99.90;;;;;;5130557;28;20575;-79
2021/11/29 15:47:42;;;;;;;6.83;3.47;;;-1.20;99.90;;;;;;5118887;28;20393;-80
2021/11/29 15:50:08;;;;;;;8.00;3.67;;;-1.30;99.90;;;;;;5119281;28;20457;-79
2021/11/29 15:52:37;;;;;;;5.50;3.63;;;-1.40;99.90;;;;;;5120140;28;20437;-80
2021/11/29 15:55:04;;;;;;;6.50;3.10;;;-1.50;99.90;;;;;;5120043;28;20471;-80
2021/11/29 15:57:34;;;;;;;5.83;4.17;;;-1.50;99.90;;;;;;5118276;28;20955;-80
2021/11/29 15:59:59;;;;;;;7.90;2.60;;;-1.60;99.90;;;;;;5121235;28;20504;-80
2021/11/29 16:02:26;;;;;;;6.07;4.30;;;-1.60;99.90;;;;;;5124212;28;20444;-80
2021/11/29 16:04:52;;;;;;;6.43;3.70;;;-1.50;99.90;;;;;;5122460;28;20179;-80
2021/11/29 16:07:22;;;;;;;6.37;3.23;;;-1.60;99.90;;;;;;5122324;28;20414;-80
2021/11/29 16:09:48;;;;;;;10.57;6.77;;;-1.50;99.90;;;;;;5121976;28;20290;-80
2021/11/29 16:12:14;;;;;;;8.23;4.83;;;-1.50;99.90;;;;;;5122580;28;20478;-79
